Time;durP1;ratioP1;P1;durP2;ratioP2;P2;SDS_P1;SDS_P2;PMS_P1;PMS_P2;Temp;Humidity;BMP_temperature;BMP_pressure;BME280_temperature;BME280_humidity;BME280_pressure;Samples;Min_cycle;Max_cycle;Signal;HPM_P1;HPM_P2
2022/06/19 00:00:02;;;;;;;8.87;4.03;;;;;;;22.95;58.94;97667.03;5048779;28;20208;-77
2022/06/19 00:02:29;;;;;;;9.60;4.00;;;;;;;22.93;58.52;97662.88;5063397;28;20303;-77
2022/06/19 00:04:58;;;;;;;10.10;4.07;;;;;;;22.89;58.06;97657.03;5053385;28;20212;-77
2022/06/19 00:07:24;;;;;;;6.20;3.35;;;;;;;22.85;58.00;97655.75;5053256;28;20223;-77
2022/06/19 00:09:51;;;;;;;6.05;3.70;;;;;;;22.80;58.22;97662.75;5051403;28;20235;-77
2022/06/19 00:12:18;;;;;;;7.10;4.13;;;;;;;22.72;58.44;97655.63;5053166;28;20222;-77
2022/06/19 00:14:46;;;;;;;7.87;3.80;;;;;;;22.62;60.03;97649.72;5052991;28;20223;-77
2022/06/19 00:17:13;;;;;;;11.55;5.00;;;;;;;22.58;61.29;97650.31;5052958;28;20236;-77
2022/06/19 00:19:41;;;;;;;12.73;5.13;;;;;;;22.57;62.22;97648.63;5053108;28;20224;-77
2022/06/19 00:22:09;;;;;;;12.43;5.40;;;;;;;22.38;62.83;97641.97;5052962;28;20208;-77
2022/06/19 00:24:36;;;;;;;10.73;4.73;;;;;;;22.23;64.14;97645.75;5052958;28;20211;-77
2022/06/19 00:27:03;;;;;;;11.30;5.23;;;;;;;22.12;64.78;97636.31;5052595;28;20258;-77
2022/06/19 00:29:30;;;;;;;7.63;4.70;;;;;;;22.10;64.38;97638.38;5052582;28;20665;-77
2022/06/19 00:31:56;;;;;;;7.90;4.80;;;;;;;21.99;65.45;97638.84;5052723;28;20222;-77
2022/06/19 00:34:23;;;;;;;6.90;4.20;;;;;;;21.89;66.06;97626.72;5052668;28;20686;-77
2022/06/19 00:36:51;;;;;;;8.70;5.00;;;;;;;21.83;65.90;97628.28;5050871;28;20212;-77
2022/06/19 00:39:20;;;;;;;8.40;4.53;;;;;;;21.81;66.13;97616.91;5047503;28;20211;-77
2022/06/19 00:41:48;;;;;;;8.00;4.47;;;;;;;21.76;67.05;97616.63;5052948;28;20214;-77
2022/06/19 00:44:16;;;;;;;8.53;4.70;;;;;;;21.75;66.57;97614.97;5052776;28;20208;-77
2022/06/19 00:46:52;;;;;;;8.83;5.00;;;;;;;21.74;66.54;97615.97;5052461;28;20216;-77
2022/06/19 00:49:23;;;;;;;8.47;4.80;;;;;;;21.72;67.05;97623.41;5052738;28;20212;-77
2022/06/19 00:51:59;;;;;;;8.50;4.57;;;;;;;21.70;67.37;97625.44;5052830;28;20212;-77
2022/06/19 00:54:27;;;;;;;9.67;4.23;;;;;;;21.69;67.96;97621.09;5052743;28;20310;-77
2022/06/19 00:56:53;;;;;;;10.87;5.07;;;;;;;21.67;67.96;97617.75;5052635;28;20212;-77
2022/06/19 00:59:20;;;;;;;8.70;4.27;;;;;;;21.64;67.93;97610.00;5052011;28;20733;-77
2022/06/19 01:01:47;;;;;;;8.27;4.07;;;;;;;21.61;67.89;97605.03;5050631;28;20220;-77
2022/06/19 01:04:20;;;;;;;8.10;4.33;;;;;;;21.55;68.19;97595.03;5052584;28;20212;-76
2022/06/19 01:06:48;;;;;;;10.03;4.50;;;;;;;21.54;67.92;97592.50;5052639;28;20298;-77
2022/06/19 01:09:15;;;;;;;10.30;4.33;;;;;;;21.51;67.38;97588.34;5052257;28;20678;-77
2022/06/19 01:11:43;;;;;;;8.50;4.87;;;;;;;21.49;68.08;97595.75;5052608;28;20208;-77
2022/06/19 01:14:14;;;;;;;9.00;4.13;;;;;;;21.45;68.41;97590.97;5052482;28;20212;-77
2022/06/19 01:16:41;;;;;;;9.07;4.57;;;;;;;21.43;67.62;97593.81;5055404;28;20752;-77
2022/06/19 01:19:11;;;;;;;7.20;3.80;;;;;;;21.41;67.12;97586.97;5052382;28;20984;-77
2022/06/19 01:21:47;;;;;;;10.30;4.20;;;;;;;21.35;67.52;97583.19;5052351;28;20212;-77
2022/06/19 01:24:22;;;;;;;7.43;4.00;;;;;;;21.33;67.23;97579.81;5052388;28;20253;-77
2022/06/19 01:26:54;;;;;;;7.57;4.30;;;;;;;21.36;66.64;97579.47;5051978;28;20212;-77
2022/06/19 01:29:20;;;;;;;8.33;4.43;;;;;;;21.37;66.53;97574.91;5050783;28;20303;-77
2022/06/19 01:31:50;;;;;;;8.67;4.20;;;;;;;21.40;66.74;97569.97;5052455;28;20212;-77
2022/06/19 01:34:27;;;;;;;9.40;4.37;;;;;;;21.41;67.11;97566.31;5051906;28;20226;-77
2022/06/19 01:36:58;;;;;;;10.43;3.77;;;;;;;21.30;68.10;97564.06;5051959;28;20218;-77
2022/06/19 01:39:25;;;;;;;8.30;4.47;;;;;;;21.25;68.50;97561.09;5052210;28;20284;-77
2022/06/19 01:41:53;;;;;;;9.53;4.47;;;;;;;21.23;68.84;97552.41;5053137;28;20212;-77
2022/06/19 01:44:20;;;;;;;8.13;5.03;;;;;;;21.19;69.45;97556.47;5055694;28;20590;-77
2022/06/19 01:46:47;;;;;;;8.27;4.27;;;;;;;21.16;69.51;97551.44;5055987;28;20233;-77
2022/06/19 01:49:14;;;;;;;7.17;4.50;;;;;;;21.15;69.51;97555.16;5055484;28;20212;-78
2022/06/19 01:51:41;;;;;;;6.73;4.43;;;;;;;21.14;69.86;97545.44;5055793;28;20236;-77
2022/06/19 01:54:15;;;;;;;9.63;4.50;;;;;;;21.14;69.86;97537.38;5053828;28;20220;-77
2022/06/19 01:56:41;;;;;;;7.53;4.67;;;;;;;21.09;69.88;97536.28;5045381;28;20212;-77
2022/06/19 01:59:11;;;;;;;10.40;4.63;;;;;;;21.03;70.38;97540.53;5055359;28;20231;-77
2022/06/19 02:01:40;;;;;;;7.17;4.77;;;;;;;20.98;71.30;97536.72;5055467;28;20290;-77
2022/06/19 02:04:08;;;;;;;9.23;4.53;;;;;;;20.94;72.01;97538.09;5055426;28;20207;-77
2022/06/19 02:06:39;;;;;;;7.90;4.43;;;;;;;20.88;73.18;97539.69;5055450;28;20222;-77
2022/06/19 02:09:06;;;;;;;8.70;4.70;;;;;;;20.86;73.85;97532.81;5055445;28;20217;-77
2022/06/19 02:11:34;;;;;;;11.67;5.00;;;;;;;20.89;73.76;97543.19;5055061;28;20716;-77
2022/06/19 02:14:03;;;;;;;9.50;4.70;;;;;;;20.91;73.95;97543.88;5055341;28;20212;-77
2022/06/19 02:16:36;;;;;;;10.33;5.00;;;;;;;20.91;73.83;97542.00;5055267;28;20224;-77
2022/06/19 02:19:03;;;;;;;9.33;4.57;;;;;;;20.91;74.01;97538.50;5055162;28;20236;-77
2022/06/19 02:21:38;;;;;;;6.50;4.73;;;;;;;20.88;74.16;97542.38;5053702;28;20624;-77
2022/06/19 02:24:07;;;;;;;7.73;4.57;;;;;;;20.88;74.40;97544.22;5055227;28;20220;-77
2022/06/19 02:26:36;;;;;;;8.27;5.07;;;;;;;20.86;74.46;97541.69;5055133;28;20222;-78
2022/06/19 02:29:06;;;;;;;16.43;4.97;;;;;;;20.89;74.75;97549.41;5054969;28;20215;-77
2022/06/19 02:31:35;;;;;;;8.97;4.60;;;;;;;20.95;74.23;97551.38;5060958;28;20333;-78
2022/06/19 02:34:06;;;;;;;9.97;4.93;;;;;;;20.98;74.74;97564.41;5053334;28;20249;-77
2022/06/19 02:36:39;;;;;;;8.77;5.17;;;;;;;20.93;74.67;97556.09;5054910;28;20225;-77
2022/06/19 02:39:37;;;;;;;8.37;4.77;;;;;;;20.89;74.83;97552.09;5054832;28;20262;-77
2022/06/19 02:42:18;;;;;;;8.60;5.03;;;;;;;20.86;75.29;97549.75;5044939;28;20212;-77
2022/06/19 02:44:45;;;;;;;9.77;4.80;;;;;;;20.86;75.24;97544.38;5054855;28;20208;-78
2022/06/19 02:47:15;;;;;;;8.87;5.30;;;;;;;20.88;74.80;97547.75;5053120;28;20658;-77
2022/06/19 02:49:42;;;;;;;7.20;4.80;;;;;;;20.90;74.73;97545.72;5054519;28;20212;-77
2022/06/19 02:52:11;;;;;;;9.17;5.27;;;;;;;20.88;74.41;97542.38;5054562;28;20216;-77
2022/06/19 02:54:38;;;;;;;9.17;5.13;;;;;;;20.82;74.29;97547.59;5053093;28;20219;-77
2022/06/19 02:57:06;;;;;;;10.17;5.37;;;;;;;20.80;74.63;97550.47;5054223;28;20310;-77
2022/06/19 02:59:33;;;;;;;8.50;4.60;;;;;;;20.69;75.01;97545.56;5054733;28;20322;-77
2022/06/19 03:01:59;;;;;;;7.27;4.97;;;;;;;20.56;76.07;97536.47;5054276;28;20216;-77
2022/06/19 03:04:32;;;;;;;11.83;5.30;;;;;;;20.43;76.96;97529.00;5054384;28;20266;-77
2022/06/19 03:06:59;;;;;;;7.93;4.83;;;;;;;20.35;77.57;97534.47;5054406;28;20377;-77
2022/06/19 03:09:25;;;;;;;7.80;4.63;;;;;;;20.30;77.62;97526.13;5054155;28;20306;-78
2022/06/19 03:11:52;;;;;;;7.83;4.73;;;;;;;20.27;77.52;97521.13;5052598;28;20306;-78
2022/06/19 03:14:19;;;;;;;9.00;5.10;;;;;;;20.33;76.53;97520.41;5053922;28;20305;-77
2022/06/19 03:16:45;;;;;;;11.27;5.30;;;;;;;20.37;76.31;97516.31;5054082;28;20222;-78
2022/06/19 03:19:12;;;;;;;7.57;4.90;;;;;;;20.35;76.60;97518.34;5054146;28;20243;-78
2022/06/19 03:21:40;;;;;;;8.83;5.07;;;;;;;20.36;77.08;97517.34;5054115;28;20216;-78
2022/06/19 03:24:07;;;;;;;9.57;5.30;;;;;;;20.36;77.35;97520.03;5054112;28;20596;-78
2022/06/19 03:26:34;;;;;;;7.67;4.93;;;;;;;20.36;77.77;97520.03;5053850;28;20302;-78
2022/06/19 03:29:00;;;;;;;9.20;5.50;;;;;;;20.38;78.22;97518.00;5054003;28;20216;-78
2022/06/19 03:31:29;;;;;;;6.57;4.70;;;;;;;20.45;77.78;97512.75;5054005;28;20213;-78
2022/06/19 03:33:55;;;;;;;8.17;4.93;;;;;;;20.51;77.11;97514.69;5053510;28;20682;-77
2022/06/19 03:36:22;;;;;;;6.83;4.53;;;;;;;20.54;76.06;97515.16;5053888;28;20227;-78
2022/06/19 03:38:51;;;;;;;9.33;4.80;;;;;;;20.58;75.45;97513.78;5051640;28;20250;-78
2022/06/19 03:41:18;;;;;;;11.73;4.80;;;;;;;20.62;75.41;97515.09;5053629;28;20204;-78
2022/06/19 03:43:45;;;;;;;13.40;4.60;;;;;;;20.63;75.48;97511.41;5053738;28;20588;-78
2022/06/19 03:46:14;;;;;;;8.77;4.50;;;;;;;20.61;75.99;97513.41;5057951;28;20212;-78
2022/06/19 03:48:41;;;;;;;8.50;4.90;;;;;;;20.63;75.78;97505.19;5053125;28;20216;-78
2022/06/19 03:51:08;;;;;;;9.60;5.40;;;;;;;20.72;74.94;97504.91;5053579;28;20208;-78
2022/06/19 03:53:35;;;;;;;8.13;4.70;;;;;;;20.79;74.46;97505.84;5053182;28;20211;-78
2022/06/19 03:56:04;;;;;;;6.60;4.67;;;;;;;20.82;74.37;97505.47;5053434;28;20246;-77
2022/06/19 04:01:11;;;;;;;12.07;5.20;;;;;;;20.87;75.25;97504.91;5053176;28;20212;-78
2022/06/19 04:03:38;;;;;;;9.10;4.97;;;;;;;20.83;75.74;97507.13;5052671;28;20227;-78
2022/06/19 04:06:04;;;;;;;10.07;4.87;;;;;;;20.83;75.85;97501.78;5051440;28;20248;-77
2022/06/19 04:08:31;;;;;;;8.67;4.40;;;;;;;20.89;75.27;97501.06;5052848;28;20215;-78
2022/06/19 04:10:57;;;;;;;8.83;4.43;;;;;;;20.94;74.97;97506.72;5052892;28;20670;-78
2022/06/19 04:13:25;;;;;;;9.10;4.17;;;;;;;21.01;74.51;97499.59;5053063;28;20208;-78
2022/06/19 04:15:52;;;;;;;9.23;4.40;;;;;;;21.07;74.06;97504.22;5052733;28;20250;-78
2022/06/19 04:18:18;;;;;;;10.70;4.27;;;;;;;21.17;73.48;97499.41;5053013;28;20235;-78
2022/06/19 04:20:45;;;;;;;9.47;4.37;;;;;;;21.23;72.62;97504.03;5053033;28;20219;-78
2022/06/19 04:23:11;;;;;;;10.37;4.80;;;;;;;21.30;71.67;97510.31;5052967;28;20233;-77
2022/06/19 04:25:42;;;;;;;12.47;4.53;;;;;;;21.40;70.53;97508.16;5052981;28;21651;-79
2022/06/19 04:28:09;;;;;;;7.47;4.33;;;;;;;21.50;69.68;97511.38;5052711;28;20220;-78
2022/06/19 04:30:38;;;;;;;9.90;4.23;;;;;;;21.58;69.30;97507.75;5051353;28;20227;-78
2022/06/19 04:33:05;;;;;;;8.00;3.93;;;;;;;21.67;68.85;97515.56;5052386;28;20214;-77
2022/06/19 04:35:31;;;;;;;5.87;3.83;;;;;;;21.78;68.67;97520.44;5052884;28;20274;-77
2022/06/19 04:37:58;;;;;;;7.67;4.00;;;;;;;21.91;67.64;97525.13;5052767;28;20231;-78
2022/06/19 04:40:28;;;;;;;11.07;4.40;;;;;;;22.01;67.00;97521.06;5052647;28;20212;-78
2022/06/19 04:42:55;;;;;;;5.63;3.50;;;;;;;22.14;66.90;97515.81;5052504;28;20262;-78
2022/06/19 04:45:21;;;;;;;7.30;3.70;;;;;;;22.22;66.04;97515.72;5052632;28;20218;-78
2022/06/19 04:47:49;;;;;;;7.07;3.80;;;;;;;22.36;65.40;97519.34;5052813;28;20217;-78
2022/06/19 04:50:16;;;;;;;7.83;3.60;;;;;;;22.41;65.18;97517.75;5052431;28;20216;-78
2022/06/19 04:52:43;;;;;;;8.03;3.63;;;;;;;22.52;64.63;97506.47;5052750;28;20208;-78
2022/06/19 04:55:11;;;;;;;8.27;4.03;;;;;;;22.68;64.17;97506.16;5052315;28;20654;-78
2022/06/19 04:57:38;;;;;;;7.40;3.83;;;;;;;23.01;63.08;97504.53;5050755;28;20212;-78
2022/06/19 05:00:10;;;;;;;5.93;3.53;;;;;;;23.61;60.84;97518.16;5052143;28;20263;-78
2022/06/19 05:02:37;;;;;;;7.63;3.80;;;;;;;24.21;58.30;97509.19;5050940;28;20215;-78
2022/06/19 05:05:06;;;;;;;6.37;3.63;;;;;;;24.82;56.24;97507.97;5052530;28;20208;-78
2022/06/19 05:07:33;;;;;;;9.87;4.37;;;;;;;25.38;54.13;97506.41;5052601;28;20220;-78
2022/06/19 05:10:00;;;;;;;5.23;3.40;;;;;;;25.94;52.59;97519.09;5052607;28;20207;-78
2022/06/19 05:12:27;;;;;;;12.07;4.13;;;;;;;26.43;51.15;97516.47;5052230;28;20220;-78
2022/06/19 05:14:54;;;;;;;6.05;3.40;;;;;;;26.91;49.65;97520.28;5052322;28;20212;-78
2022/06/19 05:17:21;;;;;;;7.63;3.80;;;;;;;27.42;48.45;97518.09;5054275;28;20208;-78
2022/06/19 05:19:47;;;;;;;5.32;3.25;;;;;;;27.90;47.57;97517.09;5056342;28;20231;-78
2022/06/19 05:22:15;;;;;;;9.93;3.92;;;;;;;28.30;45.81;97528.25;5053886;28;20222;-78
2022/06/19 05:24:42;;;;;;;7.15;3.58;;;;;;;28.68;44.81;97520.56;5056370;28;20208;-78
2022/06/19 05:27:10;;;;;;;10.73;4.10;;;;;;;29.07;44.11;97525.34;5056287;28;20240;-78
2022/06/19 05:29:38;;;;;;;10.60;3.78;;;;;;;29.38;42.94;97522.25;5056259;28;20212;-78
2022/06/19 05:32:05;;;;;;;8.25;4.15;;;;;;;29.69;42.09;97527.31;5055963;28;20218;-78
2022/06/19 05:34:32;;;;;;;10.27;4.07;;;;;;;29.87;41.08;97521.69;5056109;28;20218;-78
2022/06/19 05:36:59;;;;;;;7.45;3.20;;;;;;;30.10;41.08;97517.03;5055679;28;20218;-79
2022/06/19 05:39:27;;;;;;;10.15;4.18;;;;;;;30.38;40.50;97519.72;5055714;28;20239;-78
2022/06/19 05:41:57;;;;;;;10.60;4.13;;;;;;;30.54;40.28;97513.47;5055957;28;20578;-78
2022/06/19 05:44:23;;;;;;;12.23;4.32;;;;;;;30.78;39.66;97519.63;5055603;28;20216;-79
2022/06/19 05:46:50;;;;;;;9.05;4.18;;;;;;;31.09;39.40;97513.56;5055574;28;20772;-79
2022/06/19 05:49:17;;;;;;;8.85;3.45;;;;;;;31.44;38.64;97519.59;5054119;28;20227;-79
2022/06/19 05:51:44;;;;;;;8.85;4.13;;;;;;;31.75;38.55;97516.22;5055796;28;20208;-79
2022/06/19 05:54:11;;;;;;;11.10;4.45;;;;;;;31.96;36.93;97512.66;5055600;28;20214;-79
2022/06/19 05:56:40;;;;;;;13.18;3.95;;;;;;;32.11;37.25;97515.56;5055660;28;20311;-79
2022/06/19 05:59:06;;;;;;;9.48;3.97;;;;;;;32.27;36.71;97520.16;5055362;28;20701;-79
2022/06/19 06:01:33;;;;;;;11.02;3.70;;;;;;;32.46;36.39;97513.22;5055636;28;20208;-79
2022/06/19 06:04:00;;;;;;;8.65;3.85;;;;;;;32.67;36.37;97515.03;5055586;28;20673;-79
2022/06/19 06:06:30;;;;;;;10.18;3.70;;;;;;;32.88;35.99;97516.91;5055245;28;20277;-79
2022/06/19 06:08:57;;;;;;;9.85;3.92;;;;;;;33.07;35.83;97510.75;5055546;28;20817;-79
2022/06/19 06:11:24;;;;;;;8.88;4.03;;;;;;;33.35;35.50;97513.19;5055503;28;20222;-79
2022/06/19 06:13:52;;;;;;;9.38;3.28;;;;;;;33.64;35.60;97516.34;5054130;28;20223;-79
2022/06/19 06:16:21;;;;;;;12.20;3.90;;;;;;;33.87;34.92;97521.44;5055494;28;20220;-79
2022/06/19 06:18:49;;;;;;;8.93;3.60;;;;;;;34.01;34.54;97517.09;5055228;28;20232;-79
2022/06/19 06:21:19;;;;;;;9.55;3.88;;;;;;;34.08;34.43;97520.38;5055219;28;20278;-80
2022/06/19 06:23:47;;;;;;;8.75;3.55;;;;;;;34.20;34.29;97518.22;5055166;28;20223;-79
2022/06/19 06:26:16;;;;;;;10.35;3.67;;;;;;;34.29;33.86;97516.66;5055156;28;20362;-78
2022/06/19 06:28:45;;;;;;;8.52;3.47;;;;;;;34.36;33.51;97515.31;5055013;28;20638;-78
2022/06/19 06:31:13;;;;;;;8.80;3.60;;;;;;;34.42;33.48;97514.22;5055060;28;20218;-78
2022/06/19 06:33:40;;;;;;;7.97;3.45;;;;;;;34.65;33.42;97515.63;5054838;28;20219;-78
2022/06/19 06:36:07;;;;;;;8.75;3.25;;;;;;;34.79;33.28;97514.84;5054743;28;20212;-78
2022/06/19 06:38:34;;;;;;;10.60;3.80;;;;;;;34.88;33.32;97518.69;5054455;28;20323;-78
2022/06/19 06:41:01;;;;;;;8.75;3.67;;;;;;;35.04;33.45;97511.25;5053029;28;20704;-78
2022/06/19 06:43:28;;;;;;;10.32;3.92;;;;;;;35.18;32.72;97518.66;5054616;28;20216;-79
2022/06/19 06:45:55;;;;;;;9.45;4.05;;;;;;;35.22;32.36;97516.19;5054848;28;20216;-77
2022/06/19 06:48:23;;;;;;;12.50;3.95;;;;;;;35.28;32.19;97523.34;5054811;28;20212;-77
2022/06/19 06:50:49;;;;;;;10.30;3.72;;;;;;;35.28;31.95;97518.69;5054690;28;20216;-79
2022/06/19 06:53:17;;;;;;;14.32;4.13;;;;;;;35.27;32.43;97517.03;5054672;28;20642;-78
2022/06/19 06:55:45;;;;;;;11.45;3.90;;;;;;;35.24;31.93;97516.75;5054607;28;20621;-78
2022/06/19 06:58:12;;;;;;;10.32;4.00;;;;;;;35.25;32.63;97521.19;5054505;28;20299;-78
2022/06/19 07:00:39;;;;;;;12.25;4.18;;;;;;;35.36;32.79;97525.53;5054036;28;20723;-77
2022/06/19 07:03:06;;;;;;;11.52;3.92;;;;;;;35.46;32.19;97518.09;5054093;28;20212;-77
2022/06/19 07:05:35;;;;;;;9.52;3.45;;;;;;;35.51;32.23;97528.25;5054406;28;20311;-77
2022/06/19 07:08:01;;;;;;;9.98;3.88;;;;;;;35.45;32.54;97519.19;5045695;28;20215;-77
2022/06/19 07:10:28;;;;;;;13.18;4.35;;;;;;;35.37;32.54;97518.97;5045379;28;20222;-77
2022/06/19 07:12:55;;;;;;;11.10;3.80;;;;;;;35.05;32.63;97518.41;5044736;28;20217;-77
2022/06/19 07:15:22;;;;;;;11.88;4.00;;;;;;;34.08;34.38;97523.13;5047639;28;20299;-78
2022/06/19 07:17:48;;;;;;;10.27;4.00;;;;;;;33.18;36.10;97517.16;5051668;28;20270;-77
2022/06/19 07:20:15;;;;;;;6.13;3.08;;;;;;;32.49;37.51;97516.25;5052755;28;20235;-78
2022/06/19 07:22:43;;;;;;;7.97;3.50;;;;;;;31.92;39.01;97508.78;5052512;28;20678;-80
2022/06/19 07:25:15;;;;;;;7.53;3.92;;;;;;;31.55;39.71;97515.91;5052472;28;20216;-78
2022/06/19 07:27:42;;;;;;;5.88;3.58;;;;;;;31.25;41.11;97518.22;5053005;28;20212;-78
2022/06/19 07:30:14;;;;;;;5.47;3.80;;;;;;;31.00;41.67;97517.81;5051560;28;20358;-79
2022/06/19 07:32:41;;;;;;;8.50;3.63;;;;;;;30.89;42.03;97525.03;5050838;28;20572;-80
2022/06/19 07:35:08;;;;;;;6.13;3.50;;;;;;;30.93;41.80;97511.69;5046278;28;20689;-80
2022/06/19 07:37:35;;;;;;;9.25;4.07;;;;;;;30.94;41.91;97518.81;5051966;28;20267;-79
2022/06/19 07:40:04;;;;;;;7.97;4.10;;;;;;;30.83;42.49;97522.44;5051790;28;20600;-79
2022/06/19 07:42:30;;;;;;;7.97;3.95;;;;;;;30.59;42.09;97519.03;5051890;28;20216;-79
2022/06/19 07:44:57;;;;;;;7.00;4.15;;;;;;;30.48;43.06;97513.63;5052022;28;20222;-79
2022/06/19 07:50:13;;;;;;;10.57;4.22;;;;;;;30.46;44.05;97510.31;5014362;28;20212;-79
2022/06/19 07:52:42;;;;;;;10.13;4.15;;;;;;;30.43;44.12;97511.63;5051301;28;20214;-79
2022/06/19 07:55:14;;;;;;;9.13;4.10;;;;;;;30.43;43.58;97508.06;5046653;28;20212;-79
2022/06/19 07:57:41;;;;;;;8.00;3.75;;;;;;;30.46;43.89;97507.59;5045085;28;20219;-79
2022/06/19 08:00:09;;;;;;;9.32;4.18;;;;;;;30.42;43.73;97515.44;5050267;28;20704;-79
2022/06/19 08:02:36;;;;;;;8.27;4.18;;;;;;;30.50;44.14;97522.41;5052219;28;20212;-79
2022/06/19 08:05:04;;;;;;;10.95;4.10;;;;;;;30.55;44.07;97525.19;5052038;28;20215;-79
2022/06/19 08:07:31;;;;;;;13.38;4.43;;;;;;;30.65;44.39;97519.97;5045459;28;20223;-80
2022/06/19 08:09:57;;;;;;;8.55;4.47;;;;;;;30.69;43.18;97521.13;5050688;28;20730;-81
2022/06/19 08:12:26;;;;;;;8.15;4.28;;;;;;;30.77;43.42;97517.97;5049447;28;20212;-78
2022/06/19 08:14:53;;;;;;;8.50;4.15;;;;;;;30.89;44.16;97516.00;5050857;28;20212;-79
2022/06/19 08:17:20;;;;;;;8.35;4.57;;;;;;;31.06;44.37;97508.63;5047334;28;20620;-79
2022/06/19 08:19:47;;;;;;;9.52;4.22;;;;;;;31.13;44.52;97509.28;5040188;28;20319;-79
2022/06/19 08:22:13;;;;;;;8.82;4.40;;;;;;;31.24;44.47;97514.66;5048388;28;20216;-79
2022/06/19 08:24:40;;;;;;;8.00;4.10;;;;;;;31.33;43.91;97506.88;5045106;28;20227;-82
2022/06/19 08:27:07;;;;;;;11.23;4.53;;;;;;;31.45;44.07;97510.31;5031705;28;20219;-79
2022/06/19 08:29:36;;;;;;;12.52;4.55;;;;;;;31.55;43.91;97505.81;5049678;28;20308;-79
2022/06/19 08:32:03;;;;;;;10.10;4.72;;;;;;;31.66;44.74;97498.59;5035906;28;20588;-79
2022/06/19 08:34:30;;;;;;;10.48;5.03;;;;;;;31.75;43.41;97495.19;5049862;28;20216;-78
2022/06/19 08:36:59;;;;;;;8.05;4.45;;;;;;;31.80;42.94;97491.69;5051331;28;20295;-78
2022/06/19 08:39:26;;;;;;;10.20;4.75;;;;;;;31.90;43.53;97497.28;5051536;28;20211;-76
2022/06/19 08:42:15;;;;;;;11.82;5.28;;;;;;;31.96;41.66;97490.78;5051316;28;20689;-76
2022/06/19 08:45:02;;;;;;;9.82;4.97;;;;;;;32.00;42.06;97492.75;5051285;28;20221;-76
2022/06/19 08:47:44;;;;;;;13.00;5.22;;;;;;;32.07;42.36;97490.63;5051402;28;20218;-76
2022/06/19 08:50:24;;;;;;;10.13;5.57;;;;;;;32.20;41.84;97489.41;5051232;28;20685;-76
2022/06/19 08:53:06;;;;;;;10.02;4.93;;;;;;;32.29;41.70;97496.09;5055256;28;20208;-78
2022/06/19 08:55:40;;;;;;;13.70;5.65;;;;;;;32.46;42.39;97485.88;5051504;28;20215;-76
2022/06/19 08:58:16;;;;;;;12.27;5.75;;;;;;;32.52;41.59;97498.50;5055238;28;20443;-75
2022/06/19 09:00:52;;;;;;;9.27;5.50;;;;;;;32.57;40.61;97493.09;5049265;28;20237;-76
2022/06/19 09:03:28;;;;;;;12.68;6.13;;;;;;;32.60;40.44;97487.06;5054962;28;20222;-76
2022/06/19 09:06:01;;;;;;;12.15;5.80;;;;;;;32.66;41.42;97499.72;5055248;28;20226;-75
2022/06/19 09:08:47;;;;;;;10.82;5.22;;;;;;;32.61;40.06;97500.50;5048626;28;20440;-77
2022/06/19 09:11:33;;;;;;;17.92;5.82;;;;;;;32.74;41.01;97493.75;5055314;28;20295;-77
2022/06/19 09:14:13;;;;;;;13.90;5.65;;;;;;;32.76;39.05;97508.06;5054952;28;20226;-77
2022/06/19 09:16:44;;;;;;;10.73;5.70;;;;;;;32.61;39.19;97499.66;5054916;28;20310;-77
2022/06/19 09:19:14;;;;;;;12.07;6.50;;;;;;;32.61;40.23;97510.63;5052954;28;20212;-76
2022/06/19 09:21:54;;;;;;;14.25;6.13;;;;;;;32.80;39.78;97493.59;5053107;28;20701;-77
2022/06/19 09:24:38;;;;;;;13.07;5.65;;;;;;;32.94;40.46;97497.50;5054646;28;20208;-76
2022/06/19 09:27:05;;;;;;;14.27;5.55;;;;;;;33.00;38.98;97498.41;5053596;28;20212;-77
2022/06/19 09:29:38;;;;;;;8.32;5.60;;;;;;;32.99;38.72;97492.06;5054965;28;20212;-77
2022/06/19 09:32:11;;;;;;;11.93;5.47;;;;;;;33.09;39.16;97491.31;5054580;28;20259;-76
2022/06/19 09:34:45;;;;;;;11.25;5.10;;;;;;;33.16;36.10;97486.44;5054663;28;20216;-76
2022/06/19 09:37:19;;;;;;;10.82;4.90;;;;;;;33.31;31.15;97486.56;5041899;28;20251;-76
2022/06/19 09:39:51;;;;;;;8.15;4.50;;;;;;;33.45;30.34;97487.75;5054736;28;20664;-76
2022/06/19 09:42:23;;;;;;;10.23;5.10;;;;;;;33.63;31.24;97479.06;5054382;28;20674;-76
2022/06/19 09:44:56;;;;;;;7.65;4.97;;;;;;;33.71;28.29;97479.38;5054534;28;20588;-77
2022/06/19 09:47:32;;;;;;;8.50;4.45;;;;;;;33.74;28.00;97473.34;5052834;28;20277;-77
2022/06/19 09:50:05;;;;;;;9.40;4.82;;;;;;;33.81;29.05;97473.16;5054621;28;20216;-77
2022/06/19 09:52:36;;;;;;;13.32;5.72;;;;;;;33.85;27.80;97474.25;5054401;28;20224;-77
2022/06/19 09:55:08;;;;;;;7.55;4.45;;;;;;;33.83;27.49;97468.19;5054360;28;20212;-77
2022/06/19 09:57:40;;;;;;;8.93;4.65;;;;;;;33.93;29.22;97462.75;5054415;28;20208;-77
2022/06/19 10:00:10;;;;;;;8.48;4.43;;;;;;;34.03;27.76;97462.81;5054523;28;20240;-77
2022/06/19 10:02:45;;;;;;;9.85;4.25;;;;;;;34.12;27.16;97463.91;5053671;28;20270;-77
2022/06/19 10:05:23;;;;;;;8.50;4.30;;;;;;;34.19;27.11;97458.97;5054213;28;20215;-76
2022/06/19 10:07:55;;;;;;;8.38;4.65;;;;;;;34.26;26.59;97465.91;5054225;28;20587;-76
2022/06/19 10:10:30;;;;;;;12.95;5.00;;;;;;;34.33;26.75;97454.63;5053928;28;20678;-76
2022/06/19 10:12:59;;;;;;;7.65;4.50;;;;;;;34.44;26.43;97448.06;5053923;28;20216;-77
2022/06/19 10:15:29;;;;;;;12.15;4.97;;;;;;;34.49;26.15;97450.81;5051644;28;20216;-77
2022/06/19 10:18:01;;;;;;;6.90;4.88;;;;;;;34.53;28.14;97454.69;5053872;28;20216;-77
2022/06/19 10:20:37;;;;;;;7.78;5.43;;;;;;;34.51;28.09;97452.19;5053808;28;20246;-77
2022/06/19 10:23:14;;;;;;;7.60;5.07;;;;;;;34.62;28.00;97458.50;5053660;28;20216;-77
2022/06/19 10:25:52;;;;;;;9.93;5.05;;;;;;;34.64;26.40;97461.81;5053713;28;20230;-77
2022/06/19 10:28:40;;;;;;;8.10;4.68;;;;;;;34.59;25.61;97448.09;5052549;28;20239;-77
2022/06/19 10:31:21;;;;;;;11.93;5.32;;;;;;;34.62;26.28;97447.53;5053924;28;20212;-77
2022/06/19 10:34:01;;;;;;;14.68;4.95;;;;;;;34.69;27.72;97448.06;5053293;28;20891;-76
2022/06/19 10:36:37;;;;;;;8.55;4.95;;;;;;;34.82;27.63;97442.06;5053606;28;20208;-77
2022/06/19 10:39:16;;;;;;;9.20;4.78;;;;;;;34.89;25.69;97434.38;5053175;28;20249;-77
2022/06/19 10:42:01;;;;;;;11.77;4.35;;;;;;;34.95;24.91;97427.78;5048759;28;20717;-77
2022/06/19 10:44:38;;;;;;;10.70;4.80;;;;;;;35.01;25.34;97441.22;5053233;28;20598;-76
2022/06/19 10:47:11;;;;;;;11.27;5.30;;;;;;;35.04;25.43;97439.84;5053256;28;20678;-77
2022/06/19 10:49:50;;;;;;;11.35;4.95;;;;;;;34.99;25.70;97443.41;5051378;28;20212;-77
2022/06/19 10:52:23;;;;;;;9.73;4.93;;;;;;;34.98;25.88;97441.78;5053465;28;20218;-76
2022/06/19 10:55:06;;;;;;;12.75;5.30;;;;;;;35.01;26.32;97440.41;5053117;28;20212;-76
2022/06/19 10:57:45;;;;;;;9.23;5.05;;;;;;;35.11;26.73;97445.84;5051782;28;20712;-77
2022/06/19 11:00:13;;;;;;;12.27;5.28;;;;;;;35.15;25.31;97444.22;5053237;28;20244;-77
2022/06/19 11:05:35;;;;;;;6.32;4.50;;;;;;;35.19;26.62;97426.88;5052226;28;20297;-76
2022/06/19 11:08:02;;;;;;;11.70;5.13;;;;;;;35.34;25.24;97428.81;5051252;28;20224;-77
2022/06/19 11:10:37;;;;;;;10.40;5.43;;;;;;;35.24;24.81;97426.91;5052934;28;20303;-76
2022/06/19 11:13:05;;;;;;;10.77;5.47;;;;;;;35.17;25.91;97420.03;5052856;28;20222;-76
2022/06/19 11:15:34;;;;;;;15.25;4.90;;;;;;;35.26;25.81;97418.41;5051578;28;20250;-76
2022/06/19 11:18:16;;;;;;;10.32;5.47;;;;;;;35.38;26.74;97430.69;5052799;28;20216;-77
2022/06/19 11:20:59;;;;;;;10.15;5.43;;;;;;;35.47;27.66;97422.69;5051802;28;20243;-77
2022/06/19 11:23:31;;;;;;;12.30;5.07;;;;;;;35.46;25.37;97416.41;5039797;28;20582;-76
2022/06/19 11:26:05;;;;;;;10.38;5.20;;;;;;;35.47;24.29;97417.19;5052799;28;20593;-77
2022/06/19 11:28:49;;;;;;;10.35;4.97;;;;;;;35.47;25.73;97411.72;5052392;28;20650;-76
2022/06/19 11:31:20;;;;;;;9.75;5.10;;;;;;;35.42;25.79;97425.47;5040075;28;20289;-77
2022/06/19 11:33:49;;;;;;;9.63;5.90;;;;;;;35.44;25.12;97428.78;5052559;28;20204;-77
2022/06/19 11:36:30;;;;;;;10.60;5.35;;;;;;;35.45;25.37;97420.22;5050553;28;20216;-76
2022/06/19 11:38:57;;;;;;;6.78;4.82;;;;;;;35.50;24.22;97416.66;5052072;28;20247;-77
2022/06/19 11:41:30;;;;;;;8.98;4.88;;;;;;;35.54;24.46;97414.97;5051937;28;20235;-76
2022/06/19 11:44:07;;;;;;;9.27;5.10;;;;;;;35.56;25.31;97410.84;5052401;28;20222;-76
2022/06/19 11:46:46;;;;;;;10.43;5.38;;;;;;;35.63;24.50;97402.31;5052227;28;20216;-76
2022/06/19 11:49:31;;;;;;;12.30;5.15;;;;;;;35.41;25.33;97415.59;5052289;28;20211;-76